Time;durP1;ratioP1;P1;durP2;ratioP2;P2;SDS_P1;SDS_P2;PMS_P1;PMS_P2;Temp;Humidity;BMP_temperature;BMP_pressure;BME280_temperature;BME280_humidity;BME280_pressure;Samples;Min_cycle;Max_cycle;Signal;HPM_P1;HPM_P2
2021/05/04 00:01:41;;;;;;;;;;;23.40;35.20;;;;;;1570886;74;727;-52
2021/05/04 00:03:42;;;;;;;;;;;23.30;35.10;;;;;;1572465;74;717;-57
2021/05/04 00:05:44;;;;;;;;;;;23.30;35.10;;;;;;1567297;74;828;-56
2021/05/04 00:07:46;;;;;;;;;;;23.30;35.10;;;;;;1570280;74;820;-56
2021/05/04 00:09:48;;;;;;;;;;;23.40;35.10;;;;;;1559423;74;1192;-53
2021/05/04 00:11:50;;;;;;;;;;;23.30;35.20;;;;;;1578773;74;731;-56
2021/05/04 00:13:52;;;;;;;;;;;23.30;35.10;;;;;;1577154;74;739;-51
2021/05/04 00:15:54;;;;;;;;;;;23.30;35.00;;;;;;1579876;74;1922;-58
2021/05/04 00:17:56;;;;;;;;;;;23.40;35.00;;;;;;1578820;74;819;-57
2021/05/04 00:19:58;;;;;;;;;;;23.30;35.00;;;;;;1567081;74;1132;-57
2021/05/04 00:21:59;;;;;;;;;;;23.30;35.00;;;;;;1575566;74;826;-56
2021/05/04 00:24:01;;;;;;;;;;;23.30;34.90;;;;;;1581351;74;842;-55
2021/05/04 00:26:03;;;;;;;;;;;23.30;34.80;;;;;;1566526;74;712;-54
2021/05/04 00:28:05;;;;;;;;;;;23.30;34.80;;;;;;1575369;74;692;-53
2021/05/04 00:30:07;;;;;;;;;;;23.30;34.70;;;;;;1583899;74;1128;-56
2021/05/04 00:32:09;;;;;;;;;;;23.40;34.70;;;;;;1577345;74;789;-53
2021/05/04 00:34:11;;;;;;;;;;;23.20;34.50;;;;;;1583144;74;742;-56
2021/05/04 00:36:13;;;;;;;;;;;23.30;34.50;;;;;;1571761;74;1909;-56
2021/05/04 00:38:15;;;;;;;;;;;23.30;34.50;;;;;;1571679;74;746;-52
2021/05/04 00:40:17;;;;;;;;;;;23.30;34.40;;;;;;1562355;74;1142;-56
2021/05/04 00:42:23;;;;;;;;;;;23.40;34.40;;;;;;1577165;74;736;-56
2021/05/04 00:44:22;;;;;;;;;;;23.40;34.30;;;;;;1574846;74;1652;-55
2021/05/04 00:46:24;;;;;;;;;;;23.30;34.30;;;;;;1575129;74;762;-53
2021/05/04 00:48:28;;;;;;;;;;;23.40;34.20;;;;;;1580181;74;786;-53
2021/05/04 00:50:30;;;;;;;;;;;23.30;34.20;;;;;;1571119;74;1135;-57
2021/05/04 00:52:32;;;;;;;;;;;23.30;34.10;;;;;;1579121;74;669;-57
2021/05/04 00:54:34;;;;;;;;;;;23.40;34.10;;;;;;1578887;74;775;-57
2021/05/04 00:56:35;;;;;;;;;;;23.30;34.00;;;;;;1568637;74;1932;-57
2021/05/04 00:58:37;;;;;;;;;;;23.40;33.90;;;;;;1577416;74;762;-56
2021/05/04 01:00:40;;;;;;;;;;;23.30;33.90;;;;;;1571411;74;1140;-53
2021/05/04 01:02:42;;;;;;;;;;;23.40;33.90;;;;;;1561385;74;739;-56
2021/05/04 01:04:43;;;;;;;;;;;23.30;33.90;;;;;;1569854;74;673;-55
2021/05/04 01:06:45;;;;;;;;;;;23.30;33.80;;;;;;1570562;74;744;-53
2021/05/04 01:08:47;;;;;;;;;;;23.40;33.80;;;;;;1573294;74;752;-55
2021/05/04 01:10:49;;;;;;;;;;;23.30;33.90;;;;;;1573674;73;1154;-57
2021/05/04 01:12:51;;;;;;;;;;;23.30;33.90;;;;;;1569508;74;770;-58
2021/05/04 01:14:53;;;;;;;;;;;23.30;33.90;;;;;;1563572;74;753;-57
2021/05/04 01:16:55;;;;;;;;;;;23.30;33.90;;;;;;1579080;74;1938;-57
2021/05/04 01:18:57;;;;;;;;;;;23.40;33.90;;;;;;1570111;74;846;-57
2021/05/04 01:20:59;;;;;;;;;;;23.40;34.00;;;;;;1577345;74;1097;-57
2021/05/04 01:23:01;;;;;;;;;;;23.40;33.90;;;;;;1581915;74;741;-57
2021/05/04 01:25:04;;;;;;;;;;;23.40;33.90;;;;;;1573624;74;806;-57
2021/05/04 01:27:06;;;;;;;;;;;23.30;34.00;;;;;;1572475;74;714;-57
2021/05/04 01:29:08;;;;;;;;;;;23.30;33.90;;;;;;1577947;74;1134;-58
2021/05/04 01:31:10;;;;;;;;;;;23.20;33.90;;;;;;1572382;74;604;-58
2021/05/04 01:33:12;;;;;;;;;;;23.40;33.90;;;;;;1574890;74;885;-58
2021/05/04 01:35:14;;;;;;;;;;;23.20;33.90;;;;;;1581978;74;784;-58
2021/05/04 01:37:16;;;;;;;;;;;23.30;34.00;;;;;;1562198;74;1939;-58
2021/05/04 01:39:18;;;;;;;;;;;23.20;33.90;;;;;;1579409;74;1117;-56
2021/05/04 01:41:19;;;;;;;;;;;23.20;34.00;;;;;;1564791;74;823;-57
2021/05/04 01:43:21;;;;;;;;;;;23.20;34.00;;;;;;1573885;74;794;-57
2021/05/04 01:45:23;;;;;;;;;;;23.20;34.10;;;;;;1578698;74;811;-58
2021/05/04 01:47:25;;;;;;;;;;;23.20;34.10;;;;;;1571521;74;1030;-57
2021/05/04 01:49:27;;;;;;;;;;;23.20;34.10;;;;;;1570485;74;1083;-57
2021/05/04 01:51:29;;;;;;;;;;;23.20;34.20;;;;;;1585948;72;217262;-62
2021/05/04 01:53:31;;;;;;;;;;;23.20;34.20;;;;;;1635050;71;712;-65
2021/05/04 01:55:33;;;;;;;;;;;23.20;34.10;;;;;;1637782;71;878;-63
2021/05/04 01:57:34;;;;;;;;;;;23.10;34.10;;;;;;1638305;71;1930;-67
2021/05/04 01:59:36;;;;;;;;;;;23.20;34.20;;;;;;1640346;71;804;-66
2021/05/04 02:01:38;;;;;;;;;;;23.20;34.20;;;;;;1631948;71;1206;-64
2021/05/04 02:03:40;;;;;;;;;;;23.20;34.20;;;;;;1603199;72;940;-66
2021/05/04 02:05:42;;;;;;;;;;;23.20;34.30;;;;;;1609025;72;751;-65
2021/05/04 02:07:44;;;;;;;;;;;23.10;34.40;;;;;;1615734;73;754;-65
2021/05/04 02:09:46;;;;;;;;;;;23.10;34.40;;;;;;1607773;73;772;-65
2021/05/04 02:11:48;;;;;;;;;;;23.10;34.50;;;;;;1603703;72;1185;-64
2021/05/04 02:13:49;;;;;;;;;;;23.10;34.60;;;;;;1601646;72;774;-66
2021/05/04 02:15:52;;;;;;;;;;;23.10;34.60;;;;;;1609691;72;793;-64
2021/05/04 02:17:54;;;;;;;;;;;23.10;34.70;;;;;;1603555;72;1931;-66
2021/05/04 02:19:56;;;;;;;;;;;23.20;34.70;;;;;;1604799;72;791;-65
2021/05/04 02:21:57;;;;;;;;;;;23.10;34.70;;;;;;1599587;73;1193;-67
2021/05/04 02:23:59;;;;;;;;;;;23.10;34.80;;;;;;1606763;72;884;-66
2021/05/04 02:26:01;;;;;;;;;;;23.20;34.80;;;;;;1598559;72;815;-65
2021/05/04 02:28:03;;;;;;;;;;;23.10;34.80;;;;;;1605296;72;706;-65
2021/05/04 02:30:05;;;;;;;;;;;23.20;34.80;;;;;;1603073;72;776;-65
2021/05/04 02:32:07;;;;;;;;;;;23.10;34.80;;;;;;1609593;72;1061;-64
2021/05/04 02:34:09;;;;;;;;;;;23.20;34.80;;;;;;1603377;72;718;-65
2021/05/04 02:36:11;;;;;;;;;;;23.10;34.80;;;;;;1615476;72;1926;-65
2021/05/04 02:38:13;;;;;;;;;;;23.10;35.00;;;;;;1602643;73;848;-65
2021/05/04 02:40:15;;;;;;;;;;;23.10;35.00;;;;;;1605324;72;748;-66
2021/05/04 02:42:17;;;;;;;;;;;23.00;35.10;;;;;;1609003;72;1133;-64
2021/05/04 02:44:19;;;;;;;;;;;23.00;35.40;;;;;;1607492;72;888;-65
2021/05/04 02:46:20;;;;;;;;;;;22.90;35.60;;;;;;1605387;72;755;-65
2021/05/04 02:48:22;;;;;;;;;;;22.90;35.80;;;;;;1599535;73;776;-65
2021/05/04 02:50:24;;;;;;;;;;;22.80;36.00;;;;;;1608432;72;847;-65
2021/05/04 02:52:26;;;;;;;;;;;22.80;36.30;;;;;;1603961;73;1130;-64
2021/05/04 02:54:28;;;;;;;;;;;22.60;36.30;;;;;;1608289;72;690;-66
2021/05/04 02:56:30;;;;;;;;;;;22.70;36.40;;;;;;1613011;72;1938;-65
2021/05/04 02:58:32;;;;;;;;;;;22.70;36.40;;;;;;1602418;72;728;-65
2021/05/04 03:00:34;;;;;;;;;;;22.70;36.30;;;;;;1605214;72;727;-65
2021/05/04 03:02:36;;;;;;;;;;;22.70;36.30;;;;;;1605235;72;1185;-64
2021/05/04 03:04:37;;;;;;;;;;;22.60;36.30;;;;;;1603268;72;802;-64
2021/05/04 03:06:39;;;;;;;;;;;22.60;36.40;;;;;;1612493;72;786;-66
2021/05/04 03:08:41;;;;;;;;;;;22.60;36.40;;;;;;1609900;72;714;-65
2021/05/04 03:10:43;;;;;;;;;;;22.60;36.50;;;;;;1599775;72;832;-64
2021/05/04 03:12:45;;;;;;;;;;;22.60;36.40;;;;;;1611724;72;1168;-65
2021/05/04 03:14:47;;;;;;;;;;;22.60;36.30;;;;;;1611685;72;826;-65
2021/05/04 03:16:49;;;;;;;;;;;22.60;36.20;;;;;;1612540;72;1940;-65
2021/05/04 03:18:51;;;;;;;;;;;22.60;36.30;;;;;;1605303;72;746;-65
2021/05/04 03:20:52;;;;;;;;;;;22.60;36.30;;;;;;1602601;72;709;-65
2021/05/04 03:22:55;;;;;;;;;;;22.70;36.30;;;;;;1602702;73;1123;-65
2021/05/04 03:24:57;;;;;;;;;;;22.70;36.30;;;;;;1604675;72;750;-65
2021/05/04 03:26:58;;;;;;;;;;;22.70;36.50;;;;;;1599997;72;747;-65
2021/05/04 03:29:00;;;;;;;;;;;22.70;36.50;;;;;;1603706;73;732;-65
2021/05/04 03:31:02;;;;;;;;;;;22.70;36.50;;;;;;1603270;72;829;-66
2021/05/04 03:33:04;;;;;;;;;;;22.80;36.40;;;;;;1600244;72;1117;-65
2021/05/04 03:35:06;;;;;;;;;;;22.70;36.30;;;;;;1603985;72;775;-65
2021/05/04 03:37:08;;;;;;;;;;;22.70;36.30;;;;;;1609409;72;1930;-68
2021/05/04 03:39:10;;;;;;;;;;;22.70;36.20;;;;;;1604528;72;810;-65
2021/05/04 03:41:12;;;;;;;;;;;22.70;36.50;;;;;;1605305;72;732;-64
2021/05/04 03:43:14;;;;;;;;;;;22.70;36.30;;;;;;1604940;72;1089;-67
2021/05/04 03:45:16;;;;;;;;;;;22.80;36.30;;;;;;1606235;72;704;-63
2021/05/04 03:47:18;;;;;;;;;;;22.70;36.40;;;;;;1604633;72;755;-65
2021/05/04 03:49:19;;;;;;;;;;;22.70;36.30;;;;;;1608456;72;739;-65
2021/05/04 03:51:21;;;;;;;;;;;22.70;36.20;;;;;;1611628;72;1150;-68
2021/05/04 03:53:24;;;;;;;;;;;22.80;36.20;;;;;;1603932;72;761;-66
2021/05/04 03:55:26;;;;;;;;;;;22.80;36.30;;;;;;1604418;72;852;-66
2021/05/04 03:57:28;;;;;;;;;;;22.80;36.30;;;;;;1605374;72;1937;-65
2021/05/04 03:59:30;;;;;;;;;;;22.80;36.20;;;;;;1620049;72;675;-66
2021/05/04 04:01:32;;;;;;;;;;;22.80;36.30;;;;;;1610399;72;1126;-67
2021/05/04 04:03:34;;;;;;;;;;;22.70;36.30;;;;;;1605929;72;784;-65
2021/05/04 04:05:36;;;;;;;;;;;22.80;36.20;;;;;;1609124;72;795;-65
2021/05/04 04:07:38;;;;;;;;;;;22.80;36.10;;;;;;1609592;72;728;-65
2021/05/04 04:09:40;;;;;;;;;;;22.70;36.20;;;;;;1612507;72;792;-64
2021/05/04 04:11:41;;;;;;;;;;;22.70;36.10;;;;;;1612586;72;1155;-64
2021/05/04 04:13:44;;;;;;;;;;;22.80;36.10;;;;;;1607657;72;741;-64
2021/05/04 04:15:46;;;;;;;;;;;22.80;36.10;;;;;;1607757;72;782;-66
2021/05/04 04:17:48;;;;;;;;;;;22.80;36.10;;;;;;1606380;72;2072;-65
2021/05/04 04:19:50;;;;;;;;;;;22.80;36.30;;;;;;1600812;72;919;-65
2021/05/04 04:21:52;;;;;;;;;;;22.80;36.20;;;;;;1608346;72;1141;-63
2021/05/04 04:23:54;;;;;;;;;;;22.80;36.30;;;;;;1617815;72;765;-64
2021/05/04 04:25:56;;;;;;;;;;;22.80;36.50;;;;;;1602467;72;721;-63
2021/05/04 04:27:57;;;;;;;;;;;22.70;36.30;;;;;;1610862;72;809;-66
2021/05/04 04:29:59;;;;;;;;;;;22.80;36.30;;;;;;1601251;73;749;-65
2021/05/04 04:32:01;;;;;;;;;;;22.80;36.30;;;;;;1606609;72;1142;-66
2021/05/04 04:34:03;;;;;;;;;;;22.70;36.70;;;;;;1608760;73;794;-65
2021/05/04 04:36:05;;;;;;;;;;;22.80;36.20;;;;;;1609582;72;775;-65
2021/05/04 04:38:07;;;;;;;;;;;22.80;36.20;;;;;;1608037;73;1944;-65
2021/05/04 04:40:09;;;;;;;;;;;22.80;36.10;;;;;;1609632;72;777;-65
2021/05/04 04:42:11;;;;;;;;;;;22.80;36.10;;;;;;1609516;72;1136;-64
2021/05/04 04:44:13;;;;;;;;;;;22.80;36.00;;;;;;1602298;72;757;-65
2021/05/04 04:46:15;;;;;;;;;;;22.70;36.00;;;;;;1601803;72;718;-63
2021/05/04 04:48:17;;;;;;;;;;;22.90;36.00;;;;;;1606796;72;683;-64
2021/05/04 04:50:19;;;;;;;;;;;22.80;36.00;;;;;;1608323;72;818;-66
2021/05/04 04:52:21;;;;;;;;;;;22.80;36.10;;;;;;1610643;72;1121;-64
2021/05/04 04:54:22;;;;;;;;;;;22.80;35.90;;;;;;1608218;72;777;-64
2021/05/04 04:56:24;;;;;;;;;;;22.90;35.90;;;;;;1597845;72;781;-64
2021/05/04 04:58:26;;;;;;;;;;;22.90;35.90;;;;;;1598458;72;1930;-62
2021/05/04 05:00:28;;;;;;;;;;;22.90;36.00;;;;;;1611667;72;823;-65
2021/05/04 05:02:30;;;;;;;;;;;22.90;36.00;;;;;;1609430;72;1140;-65
2021/05/04 05:04:32;;;;;;;;;;;22.90;36.00;;;;;;1598966;73;909;-65
2021/05/04 05:06:34;;;;;;;;;;;22.90;35.80;;;;;;1600007;72;787;-64
2021/05/04 05:08:36;;;;;;;;;;;22.80;35.90;;;;;;1601790;72;795;-65
2021/05/04 05:10:38;;;;;;;;;;;22.90;36.00;;;;;;1598160;73;797;-64
2021/05/04 05:12:39;;;;;;;;;;;22.90;36.00;;;;;;1603669;72;1169;-65
2021/05/04 05:14:42;;;;;;;;;;;22.90;36.00;;;;;;1607363;72;786;-65
2021/05/04 05:16:44;;;;;;;;;;;22.90;36.10;;;;;;1609337;72;790;-64
2021/05/04 05:18:46;;;;;;;;;;;22.90;35.90;;;;;;1615835;72;2087;-65
2021/05/04 05:20:47;;;;;;;;;;;23.00;35.70;;;;;;1615438;72;708;-65
2021/05/04 05:22:49;;;;;;;;;;;23.10;35.60;;;;;;1607219;72;1133;-65
2021/05/04 05:24:51;;;;;;;;;;;23.10;35.50;;;;;;1608393;72;834;-62
2021/05/04 05:26:53;;;;;;;;;;;23.10;35.30;;;;;;1602717;73;674;-65
2021/05/04 05:28:55;;;;;;;;;;;23.10;35.20;;;;;;1606903;72;806;-63
2021/05/04 05:30:57;;;;;;;;;;;23.20;35.00;;;;;;1611958;72;741;-64
2021/05/04 05:32:59;;;;;;;;;;;23.20;34.90;;;;;;1608360;72;1129;-65
2021/05/04 05:35:01;;;;;;;;;;;23.20;34.80;;;;;;1625964;72;740;-65
2021/05/04 05:37:03;;;;;;;;;;;23.20;35.00;;;;;;1610289;72;799;-64
2021/05/04 05:39:05;;;;;;;;;;;23.20;35.20;;;;;;1617473;72;1945;-63
2021/05/04 05:41:07;;;;;;;;;;;23.10;35.20;;;;;;1603432;73;708;-65
2021/05/04 05:43:09;;;;;;;;;;;23.10;35.20;;;;;;1607387;72;1109;-65
2021/05/04 05:45:11;;;;;;;;;;;23.10;35.20;;;;;;1606928;72;766;-65
2021/05/04 05:47:13;;;;;;;;;;;23.10;35.50;;;;;;1609779;72;732;-66
2021/05/04 05:49:14;;;;;;;;;;;23.10;35.20;;;;;;1610160;72;826;-66
2021/05/04 05:51:16;;;;;;;;;;;23.20;35.10;;;;;;1610738;72;904;-66
2021/05/04 05:53:18;;;;;;;;;;;23.40;34.70;;;;;;1605592;72;799;-64
2021/05/04 05:55:20;;;;;;;;;;;23.40;34.40;;;;;;1615923;72;895;-65
2021/05/04 05:57:22;;;;;;;;;;;23.30;34.30;;;;;;1612595;72;1926;-66
2021/05/04 05:59:24;;;;;;;;;;;23.30;34.30;;;;;;1608686;72;837;-65
2021/05/04 06:01:26;;;;;;;;;;;23.30;34.30;;;;;;1612279;72;1093;-64
2021/05/04 06:03:29;;;;;;;;;;;23.30;34.30;;;;;;1604069;72;762;-65
2021/05/04 06:05:31;;;;;;;;;;;23.40;33.90;;;;;;1608199;72;713;-66
2021/05/04 06:07:33;;;;;;;;;;;23.40;33.90;;;;;;1611729;72;792;-65
2021/05/04 06:09:35;;;;;;;;;;;23.50;33.90;;;;;;1614937;72;777;-65
2021/05/04 06:11:37;;;;;;;;;;;23.40;33.70;;;;;;1608196;72;1170;-64
2021/05/04 06:13:39;;;;;;;;;;;23.40;33.60;;;;;;1601910;72;801;-67
2021/05/04 06:15:41;;;;;;;;;;;23.40;33.50;;;;;;1611242;72;743;-66
2021/05/04 06:17:43;;;;;;;;;;;23.50;33.60;;;;;;1609074;72;1909;-66
2021/05/04 06:19:45;;;;;;;;;;;23.50;33.60;;;;;;1599707;72;638;-62
2021/05/04 06:21:47;;;;;;;;;;;23.40;33.40;;;;;;1602326;72;1129;-66
2021/05/04 06:23:48;;;;;;;;;;;23.50;33.40;;;;;;1596986;72;731;-67
2021/05/04 06:25:51;;;;;;;;;;;23.30;33.30;;;;;;1603479;72;808;-66
2021/05/04 06:27:54;;;;;;;;;;;23.40;33.50;;;;;;1600402;73;694;-66
2021/05/04 06:29:57;;;;;;;;;;;23.40;33.90;;;;;;1594916;72;899;-66
2021/05/04 06:32:07;;;;;;;;;;;23.50;33.90;;;;;;1598844;72;1145;-64
2021/05/04 06:34:04;;;;;;;;;;;23.60;33.60;;;;;;1596948;72;1674;-67
2021/05/04 06:36:07;;;;;;;;;;;23.60;33.60;;;;;;1603343;72;748;-67
2021/05/04 06:38:11;;;;;;;;;;;23.60;33.40;;;;;;1604536;73;1932;-66
2021/05/04 06:40:13;;;;;;;;;;;23.60;33.40;;;;;;1609431;72;1680;-66
2021/05/04 06:42:15;;;;;;;;;;;23.60;33.30;;;;;;1610103;72;1164;-66
2021/05/04 06:44:17;;;;;;;;;;;23.70;33.40;;;;;;1596061;72;794;-66
2021/05/04 06:46:18;;;;;;;;;;;23.70;33.20;;;;;;1609799;73;908;-65
2021/05/04 06:48:20;;;;;;;;;;;23.80;33.20;;;;;;1602292;72;803;-65
2021/05/04 06:50:22;;;;;;;;;;;23.80;33.10;;;;;;1598946;72;725;-66
2021/05/04 06:52:24;;;;;;;;;;;23.90;33.00;;;;;;1608985;72;1110;-66
2021/05/04 06:54:26;;;;;;;;;;;23.80;32.90;;;;;;1615941;72;786;-66
2021/05/04 06:56:28;;;;;;;;;;;23.80;32.80;;;;;;1621308;72;768;-66
2021/05/04 06:58:30;;;;;;;;;;;23.90;32.80;;;;;;1607100;72;1941;-66
2021/05/04 07:00:32;;;;;;;;;;;23.90;32.80;;;;;;1612770;72;756;-66
2021/05/04 07:02:34;;;;;;;;;;;23.90;32.60;;;;;;1608089;72;1157;-67
2021/05/04 07:04:36;;;;;;;;;;;23.90;32.50;;;;;;1613179;72;666;-66
2021/05/04 07:06:38;;;;;;;;;;;23.90;32.50;;;;;;1599300;72;783;-66
2021/05/04 07:08:40;;;;;;;;;;;23.90;32.40;;;;;;1609227;72;785;-68
2021/05/04 07:10:42;;;;;;;;;;;23.90;32.40;;;;;;1608196;72;864;-65
2021/05/04 07:12:44;;;;;;;;;;;23.90;32.40;;;;;;1609343;72;1165;-67
2021/05/04 07:14:46;;;;;;;;;;;24.00;32.30;;;;;;1607926;72;779;-66
2021/05/04 07:16:48;;;;;;;;;;;23.90;32.30;;;;;;1612768;72;787;-66
2021/05/04 07:18:49;;;;;;;;;;;23.90;32.40;;;;;;1603590;72;1930;-65
2021/05/04 07:20:51;;;;;;;;;;;23.90;32.30;;;;;;1603031;72;785;-65
2021/05/04 07:22:55;;;;;;;;;;;24.00;32.30;;;;;;1604136;72;1156;-66
2021/05/04 07:24:57;;;;;;;;;;;23.90;32.30;;;;;;1609203;72;795;-66
2021/05/04 07:26:59;;;;;;;;;;;23.90;32.20;;;;;;1612873;73;808;-66
2021/05/04 07:29:00;;;;;;;;;;;24.00;32.10;;;;;;1611085;73;750;-67
2021/05/04 07:31:02;;;;;;;;;;;23.90;32.10;;;;;;1606439;72;811;-67
2021/05/04 07:33:04;;;;;;;;;;;23.90;32.00;;;;;;1600663;73;1102;-66
2021/05/04 07:35:07;;;;;;;;;;;23.90;31.90;;;;;;1604039;72;775;-66
2021/05/04 07:37:08;;;;;;;;;;;23.90;31.90;;;;;;1610929;73;759;-68
2021/05/04 07:39:10;;;;;;;;;;;23.90;31.80;;;;;;1610428;72;1940;-65
2021/05/04 07:41:12;;;;;;;;;;;23.90;31.80;;;;;;1609362;72;896;-66
2021/05/04 07:43:14;;;;;;;;;;;23.90;31.80;;;;;;1619748;72;1026;-66
2021/05/04 07:45:16;;;;;;;;;;;23.90;31.70;;;;;;1608439;72;734;-66
2021/05/04 07:47:18;;;;;;;;;;;24.00;31.60;;;;;;1609546;72;788;-65
2021/05/04 07:49:30;;;;;;;;;;;23.90;31.60;;;;;;1605670;72;745;-66
2021/05/04 07:51:26;;;;;;;;;;;23.90;31.60;;;;;;1602244;72;1647;-67
2021/05/04 07:53:28;;;;;;;;;;;24.00;31.70;;;;;;1573574;72;2150;-75
2021/05/04 07:55:30;;;;;;;;;;;24.00;31.70;;;;;;1562988;74;860;-74
2021/05/04 07:57:32;;;;;;;;;;;24.00;31.50;;;;;;1558249;74;778;-74
2021/05/04 07:59:34;;;;;;;;;;;24.00;31.40;;;;;;1563264;74;1946;-73
2021/05/04 08:01:36;;;;;;;;;;;24.00;31.50;;;;;;1563774;74;794;-76
2021/05/04 08:03:38;;;;;;;;;;;24.00;31.40;;;;;;1565127;74;1232;-74
2021/05/04 08:05:40;;;;;;;;;;;24.00;31.30;;;;;;1574449;74;783;-74
2021/05/04 08:07:41;;;;;;;;;;;24.00;31.20;;;;;;1564732;74;768;-73
2021/05/04 08:09:43;;;;;;;;;;;24.10;31.30;;;;;;1574321;74;777;-72
2021/05/04 08:11:45;;;;;;;;;;;24.10;31.20;;;;;;1570756;74;780;-73
2021/05/04 08:13:47;;;;;;;;;;;24.00;31.00;;;;;;1562674;74;1106;-74
2021/05/04 08:15:52;;;;;;;;;;;24.10;31.00;;;;;;1569677;74;689;-73
2021/05/04 08:17:55;;;;;;;;;;;24.00;30.80;;;;;;1569474;74;1520;-72
2021/05/04 08:19:59;;;;;;;;;;;24.00;31.00;;;;;;1575331;74;1925;-74
2021/05/04 08:22:00;;;;;;;;;;;24.10;31.00;;;;;;1567239;75;1639;-74
2021/05/04 08:24:02;;;;;;;;;;;24.00;30.80;;;;;;1567161;74;786;-73
2021/05/04 08:26:04;;;;;;;;;;;24.10;30.90;;;;;;1566550;74;850;-75
2021/05/04 08:28:06;;;;;;;;;;;24.10;30.80;;;;;;1574712;74;740;-74
2021/05/04 08:30:08;;;;;;;;;;;24.20;30.80;;;;;;1573419;74;803;-71
2021/05/04 08:32:10;;;;;;;;;;;24.20;30.70;;;;;;1561043;74;1132;-70
2021/05/04 08:34:12;;;;;;;;;;;24.00;30.00;;;;;;1570380;74;707;-69
2021/05/04 08:36:14;;;;;;;;;;;24.00;29.30;;;;;;1557975;74;833;-69
2021/05/04 08:38:16;;;;;;;;;;;23.90;28.70;;;;;;1567133;74;1938;-67
2021/05/04 08:40:17;;;;;;;;;;;23.90;28.70;;;;;;1576367;74;790;-70
2021/05/04 08:42:19;;;;;;;;;;;23.90;28.40;;;;;;1569310;74;1128;-68
2021/05/04 08:44:21;;;;;;;;;;;23.90;28.10;;;;;;1569827;74;812;-68
2021/05/04 08:46:24;;;;;;;;;;;23.90;27.70;;;;;;1566023;74;827;-68
2021/05/04 08:48:26;;;;;;;;;;;23.90;27.30;;;;;;1570947;74;809;-68
2021/05/04 08:50:35;;;;;;;;;;;23.80;27.70;;;;;;1578244;74;818;-68
2021/05/04 08:52:35;;;;;;;;;;;23.80;27.10;;;;;;1564553;74;1235;-68
2021/05/04 08:54:36;;;;;;;;;;;23.70;26.70;;;;;;1568180;74;864;-69
2021/05/04 08:56:40;;;;;;;;;;;23.60;26.30;;;;;;1563377;74;691;-69
2021/05/04 08:58:42;;;;;;;;;;;23.60;26.40;;;;;;1560975;74;1911;-68
2021/05/04 09:00:44;;;;;;;;;;;23.70;26.40;;;;;;1562595;74;791;-68
2021/05/04 09:03:01;;;;;;;;;;;23.60;26.30;;;;;;1567627;74;1182;-69
2021/05/04 09:05:07;;;;;;;;;;;23.60;26.50;;;;;;1572549;74;1213;-69
2021/05/04 09:07:30;;;;;;;;;;;23.70;27.50;;;;;;1562429;74;1020;-69
2021/05/04 09:09:36;;;;;;;;;;;23.80;27.30;;;;;;1565752;74;1692;-69
2021/05/04 09:14:05;;;;;;;;;;;23.70;26.20;;;;;;1568760;74;1651;-68
2021/05/04 09:16:19;;;;;;;;;;;23.70;26.00;;;;;;1562753;74;1200;-68
2021/05/04 09:18:24;;;;;;;;;;;23.60;25.70;;;;;;1567734;74;1831;-68
2021/05/04 09:20:32;;;;;;;;;;;23.60;25.40;;;;;;1566759;74;1871;-66
2021/05/04 09:22:34;;;;;;;;;;;23.60;25.20;;;;;;1564360;74;1654;-69
2021/05/04 09:24:41;;;;;;;;;;;23.50;25.20;;;;;;1564417;74;1137;-69
2021/05/04 09:26:43;;;;;;;;;;;23.50;25.10;;;;;;1567218;74;712;-68
2021/05/04 09:28:52;;;;;;;;;;;23.50;25.50;;;;;;1556709;74;772;-70
2021/05/04 09:30:55;;;;;;;;;;;23.50;24.80;;;;;;1562259;74;727;-70
2021/05/04 09:32:59;;;;;;;;;;;23.40;24.80;;;;;;1563417;74;1162;-70
2021/05/04 09:35:01;;;;;;;;;;;23.50;25.20;;;;;;1564996;74;1662;-70
2021/05/04 09:37:03;;;;;;;;;;;23.50;25.10;;;;;;1572240;74;803;-69
2021/05/04 09:39:05;;;;;;;;;;;23.60;25.10;;;;;;1564583;74;1943;-69
2021/05/04 09:41:08;;;;;;;;;;;23.60;25.20;;;;;;1568746;74;696;-70
2021/05/04 09:43:20;;;;;;;;;;;23.60;25.00;;;;;;1553951;74;1172;-66
2021/05/04 09:45:23;;;;;;;;;;;23.60;25.20;;;;;;1539284;75;894;-66
2021/05/04 09:47:25;;;;;;;;;;;23.60;25.00;;;;;;1510202;77;1771;-71
2021/05/04 09:49:28;;;;;;;;;;;23.50;25.90;;;;;;1536547;75;711;-71
2021/05/04 09:51:30;;;;;;;;;;;23.50;26.30;;;;;;1534616;75;746;-71
2021/05/04 09:55:53;;;;;;;;;;;23.50;26.90;;;;;;1536319;75;870;-71
2021/05/04 09:57:55;;;;;;;;;;;23.50;27.20;;;;;;1537385;75;710;-72
2021/05/04 09:59:57;;;;;;;;;;;23.50;27.50;;;;;;1531433;75;1924;-71
2021/05/04 10:01:58;;;;;;;;;;;23.60;27.90;;;;;;1531877;75;1155;-73
2021/05/04 10:04:01;;;;;;;;;;;23.60;28.10;;;;;;1538466;75;864;-72
2021/05/04 10:06:03;;;;;;;;;;;23.60;28.40;;;;;;1532756;75;793;-72
2021/05/04 10:08:05;;;;;;;;;;;23.50;28.70;;;;;;1536585;75;734;-71
2021/05/04 10:10:08;;;;;;;;;;;23.50;28.80;;;;;;1533739;75;720;-70
2021/05/04 10:12:12;;;;;;;;;;;23.60;29.00;;;;;;1541725;75;1174;-71
2021/05/04 10:14:13;;;;;;;;;;;23.60;29.20;;;;;;1536049;75;739;-71
2021/05/04 10:16:15;;;;;;;;;;;23.70;29.70;;;;;;1538621;75;727;-69
2021/05/04 10:18:17;;;;;;;;;;;23.70;29.80;;;;;;1535511;75;717;-74
2021/05/04 10:20:20;;;;;;;;;;;23.60;30.00;;;;;;1508443;77;1942;-71
2021/05/04 10:22:22;;;;;;;;;;;23.60;29.70;;;;;;1525307;76;1148;-72
2021/05/04 10:24:24;;;;;;;;;;;23.70;29.80;;;;;;1530164;76;702;-73
2021/05/04 10:26:27;;;;;;;;;;;23.80;29.60;;;;;;1531589;76;744;-73
2021/05/04 10:28:30;;;;;;;;;;;23.90;29.70;;;;;;1542326;76;690;-73
2021/05/04 10:30:33;;;;;;;;;;;23.80;29.60;;;;;;1532027;76;751;-73
2021/05/04 10:32:52;;;;;;;;;;;23.80;29.70;;;;;;1538101;76;1143;-73
2021/05/04 10:34:54;;;;;;;;;;;23.80;29.80;;;;;;1560200;75;705;-72
2021/05/04 10:36:57;;;;;;;;;;;23.80;30.10;;;;;;1551992;75;827;-73
2021/05/04 10:38:59;;;;;;;;;;;23.80;30.20;;;;;;1552443;75;1930;-73
2021/05/04 10:41:02;;;;;;;;;;;23.70;30.20;;;;;;1557229;75;827;-73
2021/05/04 10:43:24;;;;;;;;;;;23.90;30.40;;;;;;1554269;75;1096;-74
2021/05/04 10:45:39;;;;;;;;;;;23.80;30.50;;;;;;1552242;75;727;-73
2021/05/04 10:47:43;;;;;;;;;;;23.80;30.40;;;;;;1546559;75;951;-73
2021/05/04 10:49:57;;;;;;;;;;;23.90;30.60;;;;;;1546811;75;835;-72
2021/05/04 10:51:59;;;;;;;;;;;23.80;30.50;;;;;;1555077;75;1137;-72
2021/05/04 10:54:02;;;;;;;;;;;23.90;30.50;;;;;;1542060;75;843;-72
2021/05/04 10:56:07;;;;;;;;;;;23.90;30.50;;;;;;1542489;75;679;-71
2021/05/04 10:58:10;;;;;;;;;;;23.90;30.50;;;;;;1537029;75;719;-72
2021/05/04 11:00:12;;;;;;;;;;;24.00;30.50;;;;;;1551268;75;1938;-72
2021/05/04 11:02:16;;;;;;;;;;;24.00;30.50;;;;;;1519616;76;1150;-71
2021/05/04 11:04:19;;;;;;;;;;;24.00;30.40;;;;;;1544327;75;1008;-73
2021/05/04 11:06:25;;;;;;;;;;;24.00;30.50;;;;;;1551689;75;776;-70
2021/05/04 11:08:44;;;;;;;;;;;24.00;30.60;;;;;;1547087;75;752;-69
2021/05/04 11:11:04;;;;;;;;;;;24.00;30.60;;;;;;1542374;75;828;-72
2021/05/04 11:13:06;;;;;;;;;;;24.00;30.70;;;;;;1539078;75;1181;-71
2021/05/04 11:15:21;;;;;;;;;;;24.00;30.70;;;;;;1534331;76;720;-71
2021/05/04 11:17:23;;;;;;;;;;;24.00;30.70;;;;;;1533551;75;782;-68
2021/05/04 11:19:30;;;;;;;;;;;24.00;30.70;;;;;;1517771;76;1951;-71
2021/05/04 11:21:39;;;;;;;;;;;24.00;30.70;;;;;;1538522;75;781;-71
2021/05/04 11:24:00;;;;;;;;;;;24.00;30.70;;;;;;1539215;75;1199;-72
2021/05/04 11:26:01;;;;;;;;;;;24.00;30.70;;;;;;1540827;75;792;-72
2021/05/04 11:28:03;;;;;;;;;;;23.90;30.80;;;;;;1535504;75;699;-71
2021/05/04 11:30:06;;;;;;;;;;;23.90;30.90;;;;;;1539274;75;683;-70
2021/05/04 11:32:10;;;;;;;;;;;24.00;31.00;;;;;;1546027;75;1136;-71
2021/05/04 11:34:29;;;;;;;;;;;24.00;31.00;;;;;;1536187;76;773;-70
2021/05/04 11:36:33;;;;;;;;;;;24.00;31.00;;;;;;1542894;75;796;-71
2021/05/04 11:38:35;;;;;;;;;;;24.00;31.10;;;;;;1536607;76;1917;-70
2021/05/04 11:40:37;;;;;;;;;;;23.90;31.20;;;;;;1549101;75;1930;-69
2021/05/04 11:42:39;;;;;;;;;;;23.90;31.30;;;;;;1538269;75;1133;-69
2021/05/04 11:44:41;;;;;;;;;;;23.90;31.50;;;;;;1544747;75;756;-71
2021/05/04 11:46:43;;;;;;;;;;;23.80;31.50;;;;;;1539407;75;782;-72
2021/05/04 11:48:45;;;;;;;;;;;23.80;31.50;;;;;;1542210;75;847;-72
2021/05/04 11:50:48;;;;;;;;;;;23.80;31.90;;;;;;1536091;75;800;-72
2021/05/04 11:52:51;;;;;;;;;;;23.70;32.30;;;;;;1539788;75;1095;-71
2021/05/04 11:54:53;;;;;;;;;;;23.70;32.60;;;;;;1538645;75;1078;-72
2021/05/04 11:56:55;;;;;;;;;;;23.70;32.60;;;;;;1517423;76;1133;-73
2021/05/04 11:58:57;;;;;;;;;;;23.70;32.60;;;;;;1549883;75;727;-72
2021/05/04 12:01:00;;;;;;;;;;;23.70;32.70;;;;;;1554346;75;1946;-73
2021/05/04 12:03:06;;;;;;;;;;;23.70;32.70;;;;;;1549209;75;1183;-75
2021/05/04 12:05:08;;;;;;;;;;;23.80;32.70;;;;;;1544703;75;755;-73
2021/05/04 12:07:10;;;;;;;;;;;23.70;32.60;;;;;;1551739;75;688;-73
2021/05/04 12:09:13;;;;;;;;;;;23.70;32.70;;;;;;1545998;75;766;-71
2021/05/04 12:11:15;;;;;;;;;;;23.70;32.50;;;;;;1557436;75;765;-73
2021/05/04 12:13:19;;;;;;;;;;;23.80;32.50;;;;;;1546994;76;1218;-72
2021/05/04 12:15:22;;;;;;;;;;;23.80;32.40;;;;;;1550371;75;1793;-72
2021/05/04 12:17:27;;;;;;;;;;;23.80;32.30;;;;;;1548834;75;1750;-73